Time;durP1;ratioP1;P1;durP2;ratioP2;P2;SDS_P1;SDS_P2;PMS_P1;PMS_P2;Temp;Humidity;BMP_temperature;BMP_pressure;BME280_temperature;BME280_humidity;BME280_pressure;Samples;Min_cycle;Max_cycle;Signal;HPM_P1;HPM_P2
2022/09/24 00:00:44;;;;;;;3.50;3.20;;;;;;;7.55;93.73;96616.64;1755552;81;21407;-85
2022/09/24 00:03:11;;;;;;;4.50;3.62;;;;;;;7.52;93.88;96613.89;1774059;80;21398;-85
2022/09/24 00:05:39;;;;;;;4.60;3.75;;;;;;;7.48;93.91;96608.23;1762797;81;20952;-85
2022/09/24 00:08:07;;;;;;;4.05;3.02;;;;;;;7.48;93.78;96606.94;1785590;80;20974;-85
2022/09/24 00:10:39;;;;;;;4.70;3.05;;;;;;;7.48;93.78;96605.65;1781770;80;21028;-84
2022/09/24 00:13:07;;;;;;;5.12;3.25;;;;;;;7.49;93.70;96612.92;1784611;80;20969;-84
2022/09/24 00:15:37;;;;;;;3.75;2.98;;;;;;;7.47;93.40;96607.88;1782195;80;21004;-89
2022/09/24 00:18:04;;;;;;;3.52;3.20;;;;;;;7.47;93.17;96604.00;1779685;80;21057;-90
2022/09/24 00:20:31;;;;;;;3.92;3.37;;;;;;;7.46;93.28;96603.67;1779289;80;20985;-90
2022/09/24 00:22:59;;;;;;;4.50;3.50;;;;;;;7.46;93.54;96604.97;1777440;80;20908;-90
2022/09/24 00:28:09;;;;;;;4.53;4.12;;;;;;;7.44;93.65;96603.03;1773065;80;20992;-86
2022/09/24 00:30:37;;;;;;;4.42;3.17;;;;;;;7.45;93.39;96598.18;1779549;80;21011;-86
2022/09/24 00:33:03;;;;;;;5.33;2.75;;;;;;;7.44;93.35;96599.63;1785533;80;21360;-87
2022/09/24 00:35:32;;;;;;;2.90;2.60;;;;;;;7.44;93.44;96598.34;1783813;80;21005;-87
2022/09/24 00:37:58;;;;;;;3.95;3.55;;;;;;;7.46;93.45;96598.50;1783312;80;20932;-87
2022/09/24 00:40:31;;;;;;;4.28;3.27;;;;;;;7.47;93.43;96598.83;1777023;80;20971;-87
2022/09/24 00:42:57;;;;;;;3.55;3.10;;;;;;;7.47;93.41;96599.31;1781286;80;21002;-87
2022/09/24 00:45:23;;;;;;;4.35;3.35;;;;;;;7.45;93.55;96595.59;1783451;80;20956;-87
2022/09/24 00:47:49;;;;;;;3.67;3.00;;;;;;;7.42;93.43;96597.20;1784195;80;20924;-87
2022/09/24 00:50:30;;;;;;;3.35;2.72;;;;;;;7.42;93.25;96591.23;1782435;80;21394;-87
2022/09/24 00:53:09;;;;;;;3.60;2.72;;;;;;;7.40;92.94;96590.09;1782425;80;20967;-87
2022/09/24 00:55:36;;;;;;;3.40;3.00;;;;;;;7.37;92.77;96586.53;1782595;80;21381;-87
2022/09/24 00:58:04;;;;;;;4.75;3.67;;;;;;;7.35;92.66;96582.48;1779163;80;20947;-87
2022/09/24 01:00:30;;;;;;;3.60;2.72;;;;;;;7.35;92.73;96578.62;1779749;80;21110;-86
2022/09/24 01:03:04;;;;;;;4.12;2.52;;;;;;;7.35;92.86;96582.48;1786820;80;21059;-87
2022/09/24 01:05:30;;;;;;;4.08;2.95;;;;;;;7.34;93.12;96580.88;1785641;80;21021;-87
2022/09/24 01:07:57;;;;;;;4.35;2.85;;;;;;;7.35;93.22;96573.44;1782771;80;21022;-87
2022/09/24 01:10:55;;;;;;;3.67;2.80;;;;;;;7.35;93.30;96576.03;1784148;80;21361;-87
2022/09/24 01:13:54;;;;;;;3.50;3.20;;;;;;;7.34;93.37;96570.53;1782035;80;20983;-87
2022/09/24 01:17:05;;;;;;;4.15;3.05;;;;;;;7.34;93.43;96566.66;1778036;80;20949;-88
2022/09/24 01:20:07;;;;;;;3.50;3.17;;;;;;;7.28;93.50;96560.32;1780224;80;20971;-87
2022/09/24 01:23:06;;;;;;;4.00;3.00;;;;;;;7.22;93.59;96563.06;1777929;80;21397;-88
2022/09/24 01:25:46;;;;;;;2.72;2.52;;;;;;;7.18;93.39;96555.78;1783321;80;20977;-91
2022/09/24 01:28:37;;;;;;;4.20;3.25;;;;;;;7.15;93.17;96554.29;1780627;80;21335;-88
2022/09/24 01:31:08;;;;;;;4.30;3.17;;;;;;;7.13;93.06;96548.47;1775459;80;20960;-88
2022/09/24 01:33:34;;;;;;;2.83;2.60;;;;;;;7.10;92.85;96555.25;1784222;80;21319;-87
2022/09/24 01:36:07;;;;;;;4.83;3.58;;;;;;;7.09;92.86;96552.83;1758462;80;20959;-88
2022/09/24 01:38:37;;;;;;;5.10;3.37;;;;;;;7.05;92.69;96548.45;1759342;81;20921;-87
2022/09/24 01:41:02;;;;;;;3.58;3.12;;;;;;;7.02;92.86;96549.26;1771350;80;20922;-88
2022/09/24 01:43:29;;;;;;;4.12;2.83;;;;;;;6.99;93.00;96549.54;1777393;80;20977;-87
2022/09/24 01:45:57;;;;;;;3.45;2.80;;;;;;;6.98;92.82;96546.15;1774927;81;21360;-87
2022/09/24 01:48:24;;;;;;;3.47;2.95;;;;;;;6.99;92.92;96541.30;1777294;80;21368;-87
2022/09/24 01:51:01;;;;;;;3.10;2.70;;;;;;;6.99;92.82;96536.14;1774066;80;20936;-87
2022/09/24 01:53:34;;;;;;;2.77;2.58;;;;;;;6.99;92.90;96538.72;1776559;81;21277;-86
2022/09/24 01:56:05;;;;;;;2.70;2.50;;;;;;;7.00;93.04;96540.37;1775018;80;20929;-87
2022/09/24 01:58:48;;;;;;;2.60;2.33;;;;;;;6.98;93.05;96538.88;1778419;80;20953;-87
2022/09/24 02:01:24;;;;;;;3.95;3.55;;;;;;;6.97;93.24;96544.53;1806547;79;20961;-87
2022/09/24 02:03:56;;;;;;;3.17;2.85;;;;;;;6.97;93.55;96536.78;1798434;79;21040;-87
2022/09/24 02:06:37;;;;;;;3.72;2.72;;;;;;;6.97;93.40;96537.27;1804133;79;21433;-87
2022/09/24 02:09:04;;;;;;;3.72;2.85;;;;;;;6.95;93.49;96537.42;1807938;79;20945;-87
2022/09/24 02:11:30;;;;;;;6.15;3.05;;;;;;;6.96;93.65;96534.36;1806363;79;20978;-87
2022/09/24 02:14:12;;;;;;;5.00;3.20;;;;;;;6.97;93.65;96535.48;1804941;79;21995;-87
2022/09/24 02:16:41;;;;;;;;;;;;;;;7.00;93.80;96536.50;1787957;79;20936;-87
2022/09/24 02:19:10;;;;;;;3.87;3.30;;;;;;;7.03;93.97;96534.89;1805911;79;20364;-87
2022/09/24 02:21:36;;;;;;;3.87;3.27;;;;;;;7.04;94.04;96527.46;1799942;79;20972;-88
2022/09/24 02:24:09;;;;;;;3.95;3.17;;;;;;;7.06;93.98;96530.70;1804122;79;20960;-87
2022/09/24 02:26:35;;;;;;;3.40;3.10;;;;;;;7.06;94.11;96529.41;1793283;79;21030;-88
2022/09/24 02:29:01;;;;;;;3.83;3.40;;;;;;;7.17;94.24;96532.20;1802361;79;21029;-87
2022/09/24 02:31:32;;;;;;;3.60;3.27;;;;;;;7.17;94.12;96526.55;1801500;79;20964;-87
2022/09/24 02:34:19;;;;;;;3.85;3.40;;;;;;;7.17;94.04;96522.67;1794047;79;20947;-88
2022/09/24 02:36:54;;;;;;;3.58;3.00;;;;;;;7.17;93.92;96525.73;1785819;80;20951;-86
2022/09/24 02:39:20;;;;;;;3.92;3.33;;;;;;;7.14;94.00;96517.79;1786079;79;21388;-87
2022/09/24 02:41:47;;;;;;;3.12;2.80;;;;;;;7.14;94.06;96516.98;1803134;79;20912;-87
2022/09/24 02:44:17;;;;;;;3.12;2.60;;;;;;;7.14;93.86;96516.50;1806005;79;20989;-87
2022/09/24 02:46:44;;;;;;;3.30;2.87;;;;;;;7.16;93.87;96523.64;1805980;79;20915;-87
2022/09/24 02:49:09;;;;;;;2.70;2.40;;;;;;;7.18;93.68;96509.27;1799998;79;20971;-87
2022/09/24 02:51:35;;;;;;;3.42;3.12;;;;;;;7.21;93.51;96516.70;1794012;79;20966;-87
2022/09/24 02:54:02;;;;;;;3.12;2.83;;;;;;;7.26;92.69;96516.22;1806927;79;20925;-88
2022/09/24 02:56:28;;;;;;;4.58;3.50;;;;;;;7.31;92.91;96512.19;1807483;79;21334;-87
2022/09/24 02:58:54;;;;;;;4.33;3.20;;;;;;;7.36;92.97;96511.73;1806128;79;20923;-87
2022/09/24 03:01:21;;;;;;;4.85;3.20;;;;;;;7.35;93.01;96512.70;1808300;79;21049;-87
2022/09/24 03:03:47;;;;;;;3.42;2.98;;;;;;;7.34;92.88;96522.72;1797216;79;20955;-87
2022/09/24 03:06:13;;;;;;;3.83;2.87;;;;;;;7.33;92.66;96518.03;1791724;79;21356;-87
2022/09/24 03:08:41;;;;;;;3.90;3.12;;;;;;;7.33;92.57;96517.22;1786166;79;20957;-87
2022/09/24 03:11:09;;;;;;;3.58;2.65;;;;;;;7.32;92.48;96514.28;1799081;77;21003;-87
2022/09/24 03:13:34;;;;;;;4.17;3.00;;;;;;;7.32;92.25;96507.37;1778068;80;21334;-87
2022/09/24 03:16:01;;;;;;;3.98;3.45;;;;;;;7.33;92.33;96500.42;1808178;77;20964;-88
2022/09/24 03:18:26;;;;;;;3.27;2.83;;;;;;;7.33;92.47;96505.59;1808840;77;21364;-87
2022/09/24 03:21:00;;;;;;;5.25;3.15;;;;;;;7.32;92.12;96499.61;1798097;77;21022;-87
2022/09/24 03:23:26;;;;;;;3.40;3.00;;;;;;;7.34;92.73;96500.74;1807736;77;20962;-87
2022/09/24 03:25:53;;;;;;;3.20;2.90;;;;;;;7.35;92.75;96502.36;1797529;79;21418;-87
2022/09/24 03:28:19;;;;;;;3.65;2.67;;;;;;;7.38;92.71;96497.67;1788120;79;20985;-88
2022/09/24 03:31:00;;;;;;;2.95;2.60;;;;;;;7.46;92.60;96491.70;1808033;77;21435;-88
2022/09/24 03:33:40;;;;;;;4.87;3.42;;;;;;;7.49;92.06;96496.09;1759117;80;21011;-88
2022/09/24 03:36:19;;;;;;;3.55;3.00;;;;;;;7.56;91.60;96496.73;1801732;79;20949;-87
2022/09/24 03:38:45;;;;;;;3.58;3.12;;;;;;;7.61;91.08;96490.59;1809431;79;20952;-87
2022/09/24 03:41:11;;;;;;;4.25;3.20;;;;;;;7.64;91.62;96483.31;1804680;79;21029;-87
2022/09/24 03:43:37;;;;;;;5.55;3.08;;;;;;;7.65;91.73;96484.95;1801682;79;20970;-88
2022/09/24 03:46:05;;;;;;;3.70;2.98;;;;;;;7.64;91.63;96487.19;1802166;79;21300;-88
2022/09/24 03:48:33;;;;;;;3.15;2.62;;;;;;;7.65;91.50;96488.84;1798066;79;21032;-87
2022/09/24 03:51:07;;;;;;;3.08;2.22;;;;;;;7.68;91.40;96489.80;1810457;79;21122;-87
2022/09/24 03:53:33;;;;;;;3.05;2.75;;;;;;;7.70;91.04;96489.64;1800494;79;21331;-87
2022/09/24 03:56:01;;;;;;;4.05;3.00;;;;;;;7.72;91.27;96493.67;1809499;79;21012;-87
2022/09/24 03:58:30;;;;;;;3.50;2.65;;;;;;;7.73;90.83;96491.89;1797459;79;20988;-87
2022/09/24 04:00:56;;;;;;;4.67;3.05;;;;;;;7.74;90.96;96493.52;1773078;80;20983;-87
2022/09/24 04:03:22;;;;;;;4.30;3.50;;;;;;;7.72;90.88;96490.28;1809128;77;21057;-87
2022/09/24 04:05:50;;;;;;;3.20;2.55;;;;;;;7.71;91.01;96490.77;1801683;77;21050;-87
2022/09/24 04:08:19;;;;;;;3.92;2.55;;;;;;;7.71;90.71;96494.64;1812499;77;20987;-87
2022/09/24 04:10:46;;;;;;;3.00;2.70;;;;;;;7.71;91.16;96489.47;1804592;77;20994;-87
2022/09/24 04:13:14;;;;;;;3.55;2.90;;;;;;;7.72;90.99;96491.09;1811910;77;21018;-87
2022/09/24 04:15:41;;;;;;;5.03;3.22;;;;;;;7.75;91.05;96492.05;1769330;80;21003;-86
2022/09/24 04:18:07;;;;;;;5.05;3.22;;;;;;;7.74;91.22;96487.85;1781173;80;20940;-87
2022/09/24 04:20:33;;;;;;;4.03;3.02;;;;;;;7.70;91.32;96491.73;1810065;79;20983;-86
2022/09/24 04:22:59;;;;;;;3.87;3.15;;;;;;;7.63;90.91;96484.77;1782137;79;20951;-87
2022/09/24 04:25:26;;;;;;;3.85;2.90;;;;;;;7.57;90.82;96482.83;1805771;79;20947;-86
2022/09/24 04:27:58;;;;;;;3.90;2.67;;;;;;;7.53;90.89;96478.47;1801636;79;20978;-87
2022/09/24 04:30:24;;;;;;;2.98;2.67;;;;;;;7.51;90.73;96476.05;1799734;79;21079;-87
2022/09/24 04:32:50;;;;;;;3.72;2.60;;;;;;;7.51;90.66;96474.76;1797858;79;21321;-87
2022/09/24 04:35:21;;;;;;;3.08;2.60;;;;;;;7.50;90.89;96478.31;1802246;79;20975;-88
2022/09/24 04:37:47;;;;;;;3.37;3.08;;;;;;;7.52;91.07;96481.55;1805977;79;20939;-88
2022/09/24 04:40:12;;;;;;;4.35;3.20;;;;;;;7.52;91.06;96480.73;1795435;79;20931;-86
2022/09/24 04:42:39;;;;;;;4.28;2.72;;;;;;;7.50;91.25;96481.38;1800444;79;21002;-85
2022/09/24 04:45:08;;;;;;;3.55;2.92;;;;;;;7.49;90.94;96469.42;1802028;79;21063;-86
2022/09/24 04:47:36;;;;;;;3.62;2.60;;;;;;;7.50;91.24;96475.73;1800707;79;22143;-86
2022/09/24 04:50:03;;;;;;;3.52;2.35;;;;;;;7.53;91.08;96477.98;1800683;79;20959;-86
2022/09/24 04:52:32;;;;;;;2.92;2.62;;;;;;;7.57;91.05;96472.00;1805023;79;21011;-86
2022/09/24 04:54:59;;;;;;;3.10;2.52;;;;;;;7.62;90.94;96475.39;1802188;79;21338;-87
2022/09/24 04:57:26;;;;;;;3.37;3.08;;;;;;;7.63;90.86;96475.23;1801991;79;21030;-86
2022/09/24 04:59:52;;;;;;;3.55;2.45;;;;;;;7.63;90.52;96470.05;1800405;79;21027;-86
2022/09/24 05:02:18;;;;;;;2.77;2.47;;;;;;;7.66;90.92;96474.93;1787517;78;21030;-86
2022/09/24 05:04:44;;;;;;;2.98;2.60;;;;;;;7.70;90.60;96472.34;1798763;79;21380;-86
2022/09/24 05:07:10;;;;;;;3.83;3.45;;;;;;;7.74;91.01;96471.52;1798668;79;20908;-86
2022/09/24 05:09:35;;;;;;;2.90;2.02;;;;;;;7.78;90.95;96476.69;1796699;79;20972;-86
2022/09/24 05:12:02;;;;;;;2.60;2.33;;;;;;;7.81;90.88;96474.61;1796047;79;21024;-86
2022/09/24 05:14:29;;;;;;;4.00;2.58;;;;;;;7.85;90.33;96467.33;1795416;79;21023;-86
2022/09/24 05:16:55;;;;;;;3.67;2.72;;;;;;;7.93;90.54;96471.67;1793643;79;21326;-86
2022/09/24 05:19:20;;;;;;;3.42;2.47;;;;;;;7.97;90.74;96470.38;1773161;79;20983;-86
2022/09/24 05:21:46;;;;;;;2.92;2.60;;;;;;;8.01;90.83;96469.09;1795063;79;20933;-86
2022/09/24 05:24:12;;;;;;;2.52;2.20;;;;;;;8.04;89.86;96470.06;1800042;79;20976;-86
2022/09/24 05:29:22;;;;;;;2.92;2.15;;;;;;;8.18;89.53;96466.81;1798701;79;20984;-85
2022/09/24 05:31:48;;;;;;;4.22;2.30;;;;;;;8.28;90.48;96463.53;1790547;79;21407;-85
2022/09/24 05:34:14;;;;;;;2.47;2.12;;;;;;;8.33;90.37;96459.98;1801183;79;20932;-86
2022/09/24 05:36:42;;;;;;;2.90;2.70;;;;;;;8.37;90.55;96458.70;1797845;79;21306;-85
2022/09/24 05:39:10;;;;;;;3.05;2.27;;;;;;;8.38;90.70;96456.92;1796808;79;21011;-85
2022/09/24 05:41:37;;;;;;;3.15;2.12;;;;;;;8.47;90.35;96461.61;1800565;79;20951;-85
2022/09/24 05:44:04;;;;;;;2.83;1.90;;;;;;;8.53;90.31;96457.05;1790281;79;20948;-85
2022/09/24 05:46:29;;;;;;;2.47;2.27;;;;;;;8.59;89.67;96455.88;1790656;79;21030;-85
2022/09/24 05:48:55;;;;;;;2.52;2.33;;;;;;;8.70;90.58;96462.00;1797163;79;21069;-86
2022/09/24 05:51:21;;;;;;;2.50;2.30;;;;;;;8.77;90.53;96462.13;1760803;79;21002;-86
2022/09/24 05:53:47;;;;;;;3.27;2.30;;;;;;;8.81;90.12;96456.14;1796796;79;21365;-85
2022/09/24 05:56:13;;;;;;;2.72;2.45;;;;;;;8.84;89.79;96463.08;1794458;79;20972;-85
2022/09/24 05:58:39;;;;;;;2.87;2.60;;;;;;;8.89;90.39;96466.45;1797190;79;20978;-86
2022/09/24 06:01:05;;;;;;;3.25;2.22;;;;;;;8.93;90.26;96471.13;1780462;79;21051;-85
2022/09/24 06:03:31;;;;;;;2.10;1.87;;;;;;;8.98;90.55;96464.97;1756248;80;21397;-85
2022/09/24 06:06:01;;;;;;;2.33;2.12;;;;;;;9.02;88.97;96468.83;1756695;80;20948;-86
2022/09/24 06:08:24;;;;;;;4.95;2.60;;;;;;;9.09;88.37;96467.64;1763132;80;21061;-85
2022/09/24 06:10:50;;;;;;;2.80;2.40;;;;;;;9.17;89.39;96468.11;1762492;80;21019;-86
2022/09/24 06:13:18;;;;;;;2.67;2.45;;;;;;;9.20;88.76;96465.98;1763895;80;21396;-86
2022/09/24 06:15:44;;;;;;;2.70;2.20;;;;;;;9.23;89.33;96465.63;1785288;80;20936;-86
2022/09/24 06:18:12;;;;;;;2.10;1.90;;;;;;;9.28;90.02;96469.83;1760658;81;21006;-85
2022/09/24 06:20:37;;;;;;;2.27;2.02;;;;;;;9.34;89.98;96467.03;1746075;81;21369;-86
2022/09/24 06:23:03;;;;;;;2.10;1.90;;;;;;;9.42;90.06;96468.27;1750919;81;20954;-86
2022/09/24 06:25:29;;;;;;;3.52;2.60;;;;;;;9.50;90.23;96475.20;1753549;82;21325;-86
2022/09/24 06:27:59;;;;;;;2.50;2.30;;;;;;;9.58;89.86;96476.42;1779358;80;21371;-85
2022/09/24 06:30:34;;;;;;;2.80;2.50;;;;;;;9.67;90.13;96477.19;1772109;80;21009;-85
2022/09/24 06:33:05;;;;;;;4.35;2.15;;;;;;;9.69;89.20;96481.22;1765276;80;20995;-86
2022/09/24 06:35:36;;;;;;;2.22;2.02;;;;;;;9.75;88.92;96481.81;1759164;81;21034;-85
2022/09/24 06:38:07;;;;;;;3.93;2.20;;;;;;;9.80;87.78;96484.72;1724491;82;20995;-86
2022/09/24 06:40:33;;;;;;;3.58;2.40;;;;;;;9.88;89.16;96479.45;1772156;80;20962;-86
2022/09/24 06:42:58;;;;;;;3.33;1.98;;;;;;;9.96;87.65;96481.67;1755157;80;20975;-86
2022/09/24 06:45:25;;;;;;;2.27;1.90;;;;;;;10.05;88.90;96484.50;1745215;80;20979;-86
2022/09/24 06:47:57;;;;;;;2.45;2.25;;;;;;;10.09;88.89;96476.20;1764710;80;20928;-86
2022/09/24 06:50:25;;;;;;;2.02;1.75;;;;;;;10.15;89.05;96477.28;1735814;82;21042;-87
2022/09/24 06:52:50;;;;;;;2.27;1.92;;;;;;;10.19;86.96;96474.64;1781839;80;20991;-87
2022/09/24 06:55:16;;;;;;;2.00;1.80;;;;;;;10.26;87.74;96479.98;1762868;80;20920;-87
2022/09/24 06:57:42;;;;;;;1.82;1.70;;;;;;;10.35;88.17;96483.60;1781280;80;21442;-86
2022/09/24 07:00:10;;;;;;;2.92;2.02;;;;;;;10.46;88.49;96484.47;1777371;80;21096;-87
2022/09/24 07:02:35;;;;;;;2.22;2.02;;;;;;;10.53;88.14;96488.45;1783980;79;20983;-87
2022/09/24 07:05:01;;;;;;;2.72;2.00;;;;;;;10.59;87.87;96489.55;1800474;79;21011;-86
2022/09/24 07:07:32;;;;;;;2.00;1.80;;;;;;;10.65;87.72;96487.03;1803389;79;20967;-86
2022/09/24 07:10:00;;;;;;;1.70;1.47;;;;;;;10.72;87.34;96482.72;1790746;79;20971;-87
2022/09/24 07:12:28;;;;;;;2.20;2.00;;;;;;;10.81;87.47;96488.64;1797398;79;20916;-86
2022/09/24 07:14:56;;;;;;;2.55;2.10;;;;;;;10.91;86.65;96489.67;1798728;79;20933;-86
2022/09/24 07:17:24;;;;;;;2.20;2.00;;;;;;;10.99;85.82;96483.87;1801983;79;20989;-86
2022/09/24 07:19:50;;;;;;;2.30;2.10;;;;;;;11.09;86.52;96491.40;1789466;79;20988;-86
2022/09/24 07:22:15;;;;;;;2.35;1.95;;;;;;;11.16;84.56;96484.97;1803515;79;20928;-86
2022/09/24 07:24:41;;;;;;;2.20;1.67;;;;;;;11.23;83.25;96489.27;1781977;80;21272;-86
2022/09/24 07:27:07;;;;;;;2.50;2.10;;;;;;;11.28;80.87;96486.91;1780746;80;21298;-87
2022/09/24 07:29:33;;;;;;;1.92;1.70;;;;;;;11.34;81.05;96488.77;1781874;80;20964;-86
2022/09/24 07:31:59;;;;;;;2.90;1.60;;;;;;;11.39;80.92;96494.25;1783580;80;21370;-88
2022/09/24 07:34:25;;;;;;;3.20;2.17;;;;;;;11.43;80.52;96499.89;1785919;80;20943;-88
2022/09/24 07:36:50;;;;;;;2.70;2.02;;;;;;;11.47;80.47;96497.72;1789129;79;21007;-88
2022/09/24 07:39:16;;;;;;;2.22;1.67;;;;;;;11.51;79.87;96502.36;1788853;79;21333;-89
2022/09/24 07:41:42;;;;;;;2.17;1.70;;;;;;;11.56;80.57;96507.84;1794638;78;21029;-89
2022/09/24 07:44:08;;;;;;;1.90;1.50;;;;;;;11.59;78.37;96502.27;1807818;78;20985;-88
2022/09/24 07:46:34;;;;;;;2.22;1.80;;;;;;;11.64;78.54;96501.20;1809251;78;20997;-89
2022/09/24 07:49:00;;;;;;;2.22;1.80;;;;;;;11.71;80.61;96500.79;1783407;80;21049;-88
2022/09/24 07:51:27;;;;;;;1.87;1.60;;;;;;;11.78;82.01;96502.64;1784092;80;20984;-89
2022/09/24 07:53:53;;;;;;;2.15;1.92;;;;;;;11.81;79.61;96513.51;1783331;80;21008;-89
2022/09/24 07:56:20;;;;;;;2.37;1.77;;;;;;;11.87;79.86;96511.45;1777920;80;20937;-88
2022/09/24 07:58:50;;;;;;;2.92;1.87;;;;;;;11.92;78.89;96513.02;1775022;80;21366;-88
2022/09/24 08:01:16;;;;;;;2.27;2.08;;;;;;;12.01;79.71;96508.47;1781860;80;21122;-89
2022/09/24 08:03:43;;;;;;;2.70;1.90;;;;;;;12.11;79.46;96509.47;1789591;79;21572;-89
2022/09/24 08:06:09;;;;;;;2.15;1.95;;;;;;;12.12;75.37;96511.88;1802663;79;21006;-88
2022/09/24 08:08:35;;;;;;;2.00;1.80;;;;;;;12.13;76.46;96517.40;1787750;80;21420;-87
2022/09/24 08:11:05;;;;;;;3.92;2.20;;;;;;;12.17;74.85;96513.42;1766411;79;20970;-88
2022/09/24 08:13:32;;;;;;;4.33;2.10;;;;;;;12.21;75.72;96513.38;1781564;80;20941;-89
2022/09/24 08:15:58;;;;;;;3.45;2.25;;;;;;;12.29;76.02;96511.92;1821988;78;21000;-89
2022/09/24 08:18:25;;;;;;;3.55;2.33;;;;;;;12.37;75.51;96516.70;1786173;80;21046;-89
2022/09/24 08:20:51;;;;;;;3.95;2.75;;;;;;;12.43;77.58;96514.62;1775025;80;20943;-87
2022/09/24 08:23:16;;;;;;;2.75;2.08;;;;;;;12.46;77.35;96516.35;1786263;79;20938;-87
2022/09/24 08:25:42;;;;;;;3.67;2.60;;;;;;;12.48;74.74;96519.56;1792880;79;21404;-87
2022/09/24 08:28:11;;;;;;;3.55;2.75;;;;;;;12.50;75.39;96518.07;1772688;79;21003;-86
2022/09/24 08:30:37;;;;;;;3.27;2.47;;;;;;;12.53;74.29;96519.02;1757850;79;21134;-88
2022/09/24 08:33:05;;;;;;;6.47;3.98;;;;;;;12.53;73.96;96519.83;1802089;79;21338;-87
2022/09/24 08:35:33;;;;;;;4.97;3.47;;;;;;;12.52;73.94;96518.69;1797979;79;20974;-86
2022/09/24 08:38:00;;;;;;;4.03;3.52;;;;;;;12.52;73.71;96518.19;1795653;79;20959;-85
2022/09/24 08:40:29;;;;;;;6.08;4.62;;;;;;;12.56;74.10;96517.33;1791554;79;20920;-85
2022/09/24 08:43:31;;;;;;;6.70;5.17;;;;;;;12.61;75.23;96511.84;1795913;79;21024;-86
2022/09/24 08:48:48;;;;;;;4.15;3.12;;;;;;;12.79;75.70;96513.95;1787755;79;21004;-86
2022/09/24 08:51:19;;;;;;;3.25;2.70;;;;;;;12.84;74.36;96519.39;1796063;79;20955;-86
2022/09/24 08:54:05;;;;;;;4.33;2.95;;;;;;;12.88;74.02;96512.01;1797455;79;20987;-86
2022/09/24 08:56:34;;;;;;;3.50;2.80;;;;;;;12.90;74.14;96508.70;1778402;79;21295;-84
2022/09/24 08:59:08;;;;;;;4.47;3.10;;;;;;;12.90;71.49;96507.41;1776478;79;21487;-84
2022/09/24 09:01:48;;;;;;;3.12;2.62;;;;;;;12.92;72.17;96516.64;1788086;79;20967;-84
2022/09/24 09:04:25;;;;;;;4.00;2.60;;;;;;;12.93;72.41;96509.63;1786426;79;21008;-84
2022/09/24 09:07:15;;;;;;;2.95;2.40;;;;;;;12.96;71.78;96505.31;1781884;80;21296;-86
2022/09/24 09:09:54;;;;;;;4.12;2.62;;;;;;;12.98;70.65;96506.42;1776454;80;21425;-85
2022/09/24 09:12:34;;;;;;;4.17;3.02;;;;;;;13.01;71.28;96500.31;1763307;80;20916;-85
2022/09/24 09:15:17;;;;;;;4.33;2.70;;;;;;;13.05;72.28;96494.23;1784786;79;20994;-85
2022/09/24 09:17:59;;;;;;;3.27;2.50;;;;;;;13.10;74.58;96493.95;1784390;80;20928;-85
2022/09/24 09:20:42;;;;;;;4.50;2.62;;;;;;;13.14;74.09;96486.03;1775897;80;21386;-84
2022/09/24 09:23:17;;;;;;;4.12;2.65;;;;;;;13.23;73.29;96476.77;1771856;79;21333;-85
2022/09/24 09:25:55;;;;;;;3.50;2.92;;;;;;;13.28;73.32;96469.16;1787132;80;20978;-85
2022/09/24 09:28:21;;;;;;;3.05;2.40;;;;;;;13.40;73.53;96463.67;1780667;79;21029;-85
2022/09/24 09:31:22;;;;;;;2.80;2.40;;;;;;;13.38;70.40;96464.37;1791182;80;21059;-85
2022/09/24 09:34:28;;;;;;;4.30;2.58;;;;;;;13.42;70.68;96464.28;1792951;79;20993;-85
2022/09/24 09:37:12;;;;;;;3.45;2.87;;;;;;;13.49;74.27;96465.08;1782583;80;21006;-85
2022/09/24 09:40:08;;;;;;;4.58;2.85;;;;;;;13.42;72.81;96465.58;1790389;80;21603;-83
2022/09/24 09:42:38;;;;;;;5.65;3.25;;;;;;;13.40;73.97;96457.95;1775913;80;20987;-86
2022/09/24 09:45:31;;;;;;;12.75;8.85;;;;;;;13.39;74.91;96458.16;1781793;80;21326;-84
2022/09/24 09:47:57;;;;;;;7.60;6.08;;;;;;;13.38;75.23;96456.55;1781709;79;20956;-85
2022/09/24 09:50:39;;;;;;;3.10;2.45;;;;;;;13.35;74.76;96455.64;1774845;80;21003;-85
2022/09/24 09:53:05;;;;;;;2.85;2.08;;;;;;;13.42;76.08;96453.34;1775841;80;21349;-85
2022/09/24 09:55:36;;;;;;;2.58;2.30;;;;;;;13.51;77.02;96444.84;1756007;80;20971;-85
2022/09/24 09:58:17;;;;;;;5.92;5.25;;;;;;;13.64;78.40;96448.75;1776684;79;20935;-85
2022/09/24 10:00:43;;;;;;;5.60;4.45;;;;;;;13.80;75.94;96448.86;1793222;78;20912;-85
2022/09/24 10:03:37;;;;;;;8.48;5.78;;;;;;;14.03;76.11;96455.83;1797771;77;21481;-85
2022/09/24 10:06:05;;;;;;;8.63;6.90;;;;;;;14.20;75.17;96449.69;1780134;80;20985;-85
2022/09/24 10:08:31;;;;;;;7.92;4.95;;;;;;;14.28;73.96;96449.46;1764315;80;21023;-85
2022/09/24 10:10:58;;;;;;;5.55;4.95;;;;;;;14.41;76.38;96446.83;1744073;80;20934;-85
2022/09/24 10:13:25;;;;;;;7.75;5.42;;;;;;;14.50;75.91;96447.97;1770485;80;21027;-85
2022/09/24 10:15:57;;;;;;;7.40;5.47;;;;;;;14.50;76.23;96450.08;1779003;79;21432;-85
2022/09/24 10:18:41;;;;;;;7.55;5.10;;;;;;;14.56;75.10;96451.86;1772364;79;21130;-85
2022/09/24 10:21:14;;;;;;;5.60;4.90;;;;;;;14.54;75.58;96449.16;1782389;80;21976;-85
2022/09/24 10:23:47;;;;;;;5.60;4.28;;;;;;;14.47;75.89;96446.55;1777519;80;20948;-85
2022/09/24 10:26:13;;;;;;;6.75;4.40;;;;;;;14.45;76.10;96453.79;1770108;80;20980;-86
2022/09/24 10:31:29;;;;;;;4.42;3.58;;;;;;;14.49;76.87;96450.29;1780710;80;21395;-85
2022/09/24 10:33:56;;;;;;;4.50;4.10;;;;;;;14.44;70.43;96450.08;1777127;80;22080;-85
2022/09/24 10:36:27;;;;;;;5.58;3.33;;;;;;;14.39;72.02;96450.66;1785244;80;20968;-86
2022/09/24 10:39:13;;;;;;;6.23;4.00;;;;;;;14.47;71.41;96449.66;1781507;80;21368;-85
2022/09/24 10:41:49;;;;;;;6.33;3.72;;;;;;;14.52;74.78;96447.26;1778179;79;21023;-86
2022/09/24 10:44:15;;;;;;;5.28;3.45;;;;;;;14.70;73.58;96441.67;1768807;80;20962;-85
2022/09/24 10:47:11;;;;;;;4.90;3.67;;;;;;;14.90;72.51;96444.22;1778355;80;21000;-85
2022/09/24 10:50:04;;;;;;;4.80;4.05;;;;;;;14.95;69.67;96447.01;1765675;80;20963;-86
2022/09/24 10:52:52;;;;;;;6.45;3.87;;;;;;;15.13;73.46;96435.05;1776263;80;20958;-89
2022/09/24 10:55:41;;;;;;;4.85;2.92;;;;;;;15.28;73.50;96435.59;1762686;80;21007;-89
2022/09/24 10:58:43;;;;;;;3.02;2.20;;;;;;;15.40;68.79;96431.80;1792940;79;20940;-90
2022/09/24 11:01:26;;;;;;;2.85;2.20;;;;;;;15.38;68.48;96427.29;1805140;79;20995;-89
2022/09/24 11:04:31;;;;;;;2.20;1.95;;;;;;;15.34;67.97;96434.77;1719765;81;21053;-90
2022/09/24 11:07:18;;;;;;;2.33;1.90;;;;;;;15.29;66.85;96430.17;1732715;82;20956;-89
2022/09/24 11:09:55;;;;;;;4.47;2.47;;;;;;;15.27;66.73;96426.13;1721570;82;21050;-90
2022/09/24 11:13:08;;;;;;;2.98;2.60;;;;;;;15.29;67.30;96424.94;1717776;82;20944;-89
2022/09/24 11:16:10;;;;;;;3.47;3.00;;;;;;;15.35;68.30;96423.79;1728191;82;21069;-89
2022/09/24 11:19:29;;;;;;;3.70;2.70;;;;;;;15.36;68.62;96414.92;1690959;83;21012;-87
2022/09/24 11:22:19;;;;;;;4.70;3.47;;;;;;;15.33;66.71;96421.38;1691537;83;21008;-85
2022/09/24 11:25:23;;;;;;;36.55;23.20;;;;;;;15.34;67.43;96415.13;1758425;80;20998;-84
2022/09/24 11:28:31;;;;;;;18.87;11.73;;;;;;;15.37;68.06;96416.52;1747084;80;21028;-84
2022/09/24 11:31:17;;;;;;;10.23;6.08;;;;;;;15.40;68.38;96405.63;1761530;80;20978;-87
2022/09/24 11:34:11;;;;;;;7.00;4.78;;;;;;;15.40;67.09;96410.86;1731665;82;21019;-85
2022/09/24 11:37:18;;;;;;;4.83;4.20;;;;;;;15.38;66.90;96424.67;1731165;82;21015;-88
2022/09/24 11:40:25;;;;;;;4.50;3.47;;;;;;;15.31;66.18;96425.52;1736301;82;20957;-88
2022/09/24 11:43:20;;;;;;;4.40;3.33;;;;;;;15.21;65.79;96419.93;1731405;82;20954;-86
2022/09/24 11:46:17;;;;;;;4.67;3.45;;;;;;;15.13;65.68;96412.81;1736666;81;21019;-88
2022/09/24 11:49:27;;;;;;;4.90;3.30;;;;;;;15.09;66.78;96412.94;1743403;81;20994;-87
2022/09/24 11:52:39;;;;;;;3.58;3.22;;;;;;;15.06;67.84;96410.75;1753586;81;21361;-86
2022/09/24 11:55:22;;;;;;;3.27;2.98;;;;;;;14.99;66.85;96415.52;1755641;80;21516;-88
2022/09/24 11:58:18;;;;;;;4.95;3.85;;;;;;;14.93;68.14;96419.45;1751678;81;20977;-87
2022/09/24 12:00:56;;;;;;;4.37;3.17;;;;;;;14.81;67.06;96429.78;1698043;81;21035;-88
2022/09/24 12:03:30;;;;;;;3.75;3.33;;;;;;;14.74;68.18;96435.52;1766894;80;21115;-88
2022/09/24 12:06:06;;;;;;;4.47;3.87;;;;;;;14.73;68.15;96425.27;1772059;80;20980;-88
2022/09/24 12:09:00;;;;;;;4.42;3.50;;;;;;;14.74;69.41;96422.45;1722551;81;20982;-88
2022/09/24 12:11:32;;;;;;;3.87;3.42;;;;;;;14.75;67.55;96431.89;1761716;80;20926;-89
2022/09/24 12:14:12;;;;;;;4.42;2.95;;;;;;;14.78;68.22;96424.94;1742558;81;20995;-89
2022/09/24 12:16:38;;;;;;;4.70;3.05;;;;;;;14.87;70.91;96421.09;1777184;80;20961;-88